TimeCDT,TemperatureF,Dew PointF,Humidity,Sea Level PressureIn,VisibilityMPH,Wind Direction,Wind SpeedMPH,Gust SpeedMPH,PrecipitationIn,Events,Conditions,WindDirDegrees,DateUTC
12:53 AM,50.0,45.0,83,30.17,10.0,NNE,10.4,-,N/A,,Overcast,20,2012-10-08 05:53:00
1:53 AM,50.0,45.0,83,30.20,10.0,North,9.2,-,N/A,,Overcast,360,2012-10-08 06:53:00
2:53 AM,48.9,46.0,90,30.19,10.0,North,9.2,-,0.00,,Overcast,350,2012-10-08 07:53:00
3:31 AM,48.2,46.4,93,30.21,10.0,North,9.2,-,0.01,Rain,Light Rain,360,2012-10-08 08:31:00
3:46 AM,48.2,46.4,93,30.20,5.0,North,9.2,-,0.04,Rain,Rain,10,2012-10-08 08:46:00
3:53 AM,48.0,46.0,93,30.18,5.0,NNE,9.2,-,0.04,Rain,Rain,30,2012-10-08 08:53:00
4:06 AM,46.4,46.4,100,30.21,4.0,NNW,6.9,-,0.03,Rain,Rain,340,2012-10-08 09:06:00
4:43 AM,48.2,46.4,93,30.21,5.0,North,5.8,-,0.11,Rain,Rain,10,2012-10-08 09:43:00
4:53 AM,46.9,46.0,97,30.21,4.0,North,5.8,-,0.14,Rain,Heavy Rain,10,2012-10-08 09:53:00
5:53 AM,48.0,46.0,93,30.21,10.0,NNE,5.8,-,0.02,,Overcast,20,2012-10-08 10:53:00
6:33 AM,48.2,46.4,93,30.22,10.0,NNE,4.6,-,N/A,,Overcast,20,2012-10-08 11:33:00
6:53 AM,48.0,46.0,93,30.22,10.0,NNE,6.9,-,N/A,,Overcast,20,2012-10-08 11:53:00
7:38 AM,48.2,46.4,93,30.23,10.0,NNE,5.8,-,N/A,,Overcast,30,2012-10-08 12:38:00
7:53 AM,48.0,46.9,96,30.23,10.0,NNE,5.8,-,N/A,,Overcast,20,2012-10-08 12:53:00
8:53 AM,50.0,46.9,89,30.25,10.0,NNE,5.8,-,N/A,,Overcast,20,2012-10-08 13:53:00
9:53 AM,53.1,46.0,77,30.25,10.0,NE,8.1,-,N/A,,Mostly Cloudy,40,2012-10-08 14:53:00
10:41 AM,53.6,44.6,72,30.25,10.0,NNE,8.1,-,N/A,,Overcast,20,2012-10-08 15:41:00
10:53 AM,54.0,45.0,72,30.25,10.0,Variable,4.6,-,N/A,,Overcast,0,2012-10-08 15:53:00
11:53 AM,55.9,44.1,64,30.24,10.0,Variable,4.6,-,N/A,,Scattered Clouds,0,2012-10-08 16:53:00
12:02 PM,55.4,44.6,67,30.24,10.0,Variable,4.6,-,N/A,,Mostly Cloudy,0,2012-10-08 17:02:00
12:10 PM,57.2,44.6,63,30.23,10.0,Variable,3.5,-,N/A,,Partly Cloudy,0,2012-10-08 17:10:00
12:53 PM,59.0,44.1,58,30.21,10.0,Calm,Calm,-,N/A,,Clear,0,2012-10-08 17:53:00
1:53 PM,61.0,44.1,54,30.19,10.0,NNE,4.6,-,N/A,,Mostly Cloudy,30,2012-10-08 18:53:00
2:53 PM,60.1,44.1,55,30.17,10.0,North,5.8,-,N/A,,Mostly Cloudy,350,2012-10-08 19:53:00
3:53 PM,60.1,44.1,55,30.15,10.0,NNE,5.8,-,N/A,,Mostly Cloudy,20,2012-10-08 20:53:00
4:53 PM,61.0,44.1,54,30.14,10.0,NNE,6.9,-,N/A,,Mostly Cloudy,20,2012-10-08 21:53:00
5:53 PM,59.0,44.1,58,30.15,10.0,NE,6.9,-,N/A,,Overcast,40,2012-10-08 22:53:00
6:53 PM,57.0,46.9,69,30.15,10.0,NE,4.6,-,N/A,,Overcast,40,2012-10-08 23:53:00
7:53 PM,57.0,45.0,64,30.15,10.0,East,4.6,-,N/A,,Overcast,80,2012-10-09 00:53:00
8:53 PM,54.0,46.9,77,30.17,10.0,Calm,Calm,-,N/A,,Overcast,0,2012-10-09 01:53:00
9:53 PM,52.0,48.0,86,30.17,10.0,Calm,Calm,-,N/A,,Overcast,0,2012-10-09 02:53:00
10:53 PM,50.0,48.0,93,30.16,10.0,Calm,Calm,-,N/A,,Overcast,0,2012-10-09 03:53:00
11:53 PM,48.0,46.9,96,30.15,9.0,Calm,Calm,-,N/A,,Clear,0,2012-10-09 04:53:00